createdAt,value
2018-12-25T00:00:01.492Z,8.93
2018-12-25T00:02:27.509Z,9.10
2018-12-25T00:04:53.505Z,7.83
2018-12-25T00:07:19.454Z,7.87
2018-12-25T00:09:45.475Z,9.13
2018-12-25T00:12:11.499Z,7.83
2018-12-25T00:14:37.640Z,8.40
2018-12-25T00:17:04.910Z,8.97
2018-12-25T00:19:30.918Z,7.33
2018-12-25T00:21:56.883Z,7.70
2018-12-25T00:24:22.918Z,7.10
2018-12-25T00:26:48.944Z,8.20
2018-12-25T00:29:15.900Z,7.42
2018-12-25T00:31:41.928Z,7.50
2018-12-25T00:34:07.947Z,6.75
2018-12-25T00:36:33.916Z,7.15
2018-12-25T00:38:59.921Z,8.27
2018-12-25T00:41:25.959Z,7.30
2018-12-25T00:43:51.944Z,6.60
2018-12-25T00:46:17.963Z,6.47
2018-12-25T00:48:46.123Z,6.85
2018-12-25T00:51:12.129Z,8.03
2018-12-25T00:53:38.143Z,7.53
2018-12-25T00:56:04.272Z,7.70
2018-12-25T00:58:30.255Z,7.03
2018-12-25T01:01:02.276Z,6.67
2018-12-25T01:03:28.315Z,6.72
2018-12-25T01:05:54.330Z,6.67
2018-12-25T01:08:20.314Z,7.10
2018-12-25T01:10:46.316Z,7.67
2018-12-25T01:13:12.301Z,6.37
2018-12-25T01:15:38.306Z,8.13
2018-12-25T01:18:04.411Z,7.27
2018-12-25T01:20:30.458Z,7.83
2018-12-25T01:22:56.574Z,6.78
2018-12-25T01:25:22.582Z,7.70
2018-12-25T01:27:48.585Z,7.33
2018-12-25T01:30:14.614Z,6.62
2018-12-25T01:32:40.639Z,7.78
2018-12-25T01:35:26.503Z,7.55
2018-12-25T01:37:52.545Z,7.15
2018-12-25T01:40:18.560Z,6.47
2018-12-25T01:42:44.556Z,7.30
2018-12-25T01:45:12.688Z,7.92
2018-12-25T01:47:38.699Z,7.42
2018-12-25T01:50:04.726Z,7.45
2018-12-25T01:52:30.751Z,8.65
2018-12-25T01:54:58.975Z,6.95
2018-12-25T01:57:24.952Z,7.35
2018-12-25T01:59:50.965Z,7.23
2018-12-25T02:02:17.003Z,7.70
2018-12-25T02:04:43.007Z,7.60
2018-12-25T02:07:09.035Z,7.37
2018-12-25T02:09:35.034Z,7.35
2018-12-25T02:12:01.077Z,7.03
2018-12-25T02:14:30.053Z,7.58
2018-12-25T02:16:56.173Z,8.83
2018-12-25T02:19:22.154Z,7.67
2018-12-25T02:21:48.138Z,6.90
2018-12-25T02:24:14.123Z,7.00
2018-12-25T02:26:40.173Z,8.43
2018-12-25T02:29:06.123Z,7.55
2018-12-25T02:31:32.110Z,7.20
2018-12-25T02:33:58.079Z,7.97
2018-12-25T02:36:24.131Z,8.57
2018-12-25T02:38:50.099Z,8.73
2018-12-25T02:41:16.096Z,8.00
2018-12-25T02:43:42.113Z,8.23
2018-12-25T02:46:08.206Z,7.75
2018-12-25T02:48:34.196Z,8.90
2018-12-25T02:51:00.192Z,7.57
2018-12-25T02:53:26.814Z,8.10
2018-12-25T02:55:52.861Z,8.88
2018-12-25T02:58:18.820Z,8.65
2018-12-25T03:00:46.562Z,9.00
2018-12-25T03:03:13.780Z,8.33
2018-12-25T03:05:39.716Z,8.03
2018-12-25T03:08:05.725Z,7.60
2018-12-25T03:10:31.747Z,7.85
2018-12-25T03:12:57.776Z,8.00
2018-12-25T03:15:23.763Z,7.60
2018-12-25T03:17:51.787Z,7.27
2018-12-25T03:20:17.779Z,8.00
2018-12-25T03:22:43.787Z,8.20
2018-12-25T03:25:09.907Z,8.08
2018-12-25T03:27:35.929Z,8.63
2018-12-25T03:30:02.844Z,8.83
2018-12-25T03:32:31.121Z,8.43
2018-12-25T03:34:57.151Z,8.70
2018-12-25T03:37:23.180Z,7.90
2018-12-25T03:39:49.212Z,8.13
2018-12-25T03:42:15.333Z,8.83
2018-12-25T03:44:41.313Z,8.05
2018-12-25T03:47:07.353Z,8.70
2018-12-25T03:49:33.333Z,8.70
2018-12-25T03:51:59.327Z,8.60
2018-12-25T03:54:25.343Z,8.30
2018-12-25T03:56:51.363Z,8.30
2018-12-25T03:59:17.358Z,8.18
2018-12-25T04:01:43.428Z,8.83
2018-12-25T04:04:09.410Z,8.48
2018-12-25T04:06:35.435Z,9.80
2018-12-25T04:09:01.413Z,8.35
2018-12-25T04:11:27.437Z,8.57
2018-12-25T04:13:53.398Z,8.60
2018-12-25T04:16:19.378Z,8.30
2018-12-25T04:18:45.390Z,9.17
2018-12-25T04:21:11.352Z,9.00
2018-12-25T04:23:37.400Z,8.70
2018-12-25T04:26:03.449Z,8.58
2018-12-25T04:28:29.895Z,9.25
2018-12-25T04:30:55.904Z,9.23
2018-12-25T04:33:22.239Z,8.68
2018-12-25T04:35:48.229Z,8.65
2018-12-25T04:38:14.299Z,8.40
2018-12-25T04:40:41.164Z,8.25
2018-12-25T04:43:07.155Z,8.85
2018-12-25T04:45:33.274Z,8.15
2018-12-25T04:47:59.318Z,8.35
2018-12-25T04:50:29.539Z,8.68
2018-12-25T04:52:53.528Z,8.55
2018-12-25T04:55:19.562Z,7.70
2018-12-25T04:57:45.579Z,8.63
2018-12-25T05:00:11.587Z,7.97
2018-12-25T05:02:37.638Z,7.70
2018-12-25T05:05:03.655Z,8.03
2018-12-25T05:07:29.656Z,9.00
2018-12-25T05:09:55.674Z,8.57
2018-12-25T05:12:21.676Z,9.53
2018-12-25T05:14:47.789Z,9.23
2018-12-25T05:17:13.768Z,8.93
2018-12-25T05:19:39.826Z,8.67
2018-12-25T05:22:05.808Z,8.85
2018-12-25T05:24:31.815Z,8.53
2018-12-25T05:26:57.871Z,8.90
2018-12-25T05:29:23.963Z,8.65
2018-12-25T05:31:49.949Z,9.00
2018-12-25T05:34:15.936Z,8.90
2018-12-25T05:36:41.979Z,10.15
2018-12-25T05:39:08.041Z,8.45
2018-12-25T05:41:34.068Z,8.70
2018-12-25T05:44:00.113Z,9.35
2018-12-25T05:46:26.425Z,9.85
2018-12-25T05:48:52.452Z,8.70
2018-12-25T05:51:18.465Z,10.00
2018-12-25T05:53:44.487Z,9.63
2018-12-25T05:56:12.572Z,9.48
2018-12-25T05:58:38.574Z,9.35
2018-12-25T06:01:04.574Z,9.20
2018-12-25T06:03:30.603Z,8.38
2018-12-25T06:05:56.581Z,9.05
2018-12-25T06:08:22.585Z,9.07
2018-12-25T06:10:48.570Z,8.48
2018-12-25T06:13:14.655Z,9.10
2018-12-25T06:15:41.003Z,9.60
2018-12-25T06:18:07.045Z,9.55
2018-12-25T06:20:33.079Z,9.30
2018-12-25T06:22:59.072Z,9.53
2018-12-25T06:25:25.094Z,9.57
2018-12-25T06:27:51.074Z,9.95
2018-12-25T06:30:17.090Z,10.07
2018-12-25T06:32:43.092Z,9.25
2018-12-25T06:35:09.091Z,10.10
2018-12-25T06:37:35.071Z,9.60
2018-12-25T06:40:01.173Z,9.90
2018-12-25T06:42:27.146Z,9.63
2018-12-25T06:44:53.159Z,10.00
2018-12-25T06:47:19.157Z,10.90
2018-12-25T06:49:45.187Z,10.77
2018-12-25T06:52:11.171Z,9.45
2018-12-25T06:54:37.183Z,11.13
2018-12-25T06:57:03.232Z,9.35
2018-12-25T06:59:29.257Z,9.85
2018-12-25T07:01:55.257Z,10.10
2018-12-25T07:04:21.241Z,12.23
2018-12-25T07:06:48.268Z,9.80
2018-12-25T07:09:14.299Z,9.38
2018-12-25T07:11:40.320Z,8.58
2018-12-25T07:14:06.343Z,8.98
2018-12-25T07:16:32.323Z,9.05
2018-12-25T07:18:58.392Z,9.70
2018-12-25T07:21:24.428Z,9.60
2018-12-25T07:23:50.849Z,9.25
2018-12-25T07:26:16.879Z,10.03
2018-12-25T07:28:42.899Z,9.15
2018-12-25T07:31:30.418Z,9.48
2018-12-25T07:33:56.472Z,9.40
2018-12-25T07:36:22.464Z,10.20
2018-12-25T07:38:48.491Z,10.40
2018-12-25T07:41:14.503Z,9.65
2018-12-25T07:43:40.493Z,9.98
2018-12-25T07:46:06.491Z,9.80
2018-12-25T07:48:32.506Z,10.00
2018-12-25T07:50:58.487Z,9.68
2018-12-25T07:53:24.521Z,10.73
2018-12-25T07:55:50.596Z,10.08
2018-12-25T07:58:16.592Z,10.48
2018-12-25T08:00:42.617Z,10.80
2018-12-25T08:03:08.612Z,10.10
2018-12-25T08:05:34.617Z,10.53
2018-12-25T08:08:00.587Z,10.18
2018-12-25T08:10:26.608Z,9.80
2018-12-25T08:12:52.679Z,10.05
2018-12-25T08:15:20.663Z,9.05
2018-12-25T08:17:48.613Z,10.23
2018-12-25T08:20:14.663Z,10.23
2018-12-25T08:22:40.706Z,10.43
2018-12-25T08:25:12.931Z,9.45
2018-12-25T08:27:39.240Z,10.13
2018-12-25T08:30:05.370Z,10.13
2018-12-25T08:32:31.420Z,9.88
2018-12-25T08:34:57.703Z,11.15
2018-12-25T08:37:23.673Z,9.25
2018-12-25T08:39:49.729Z,10.20
2018-12-25T08:42:15.741Z,10.50
2018-12-25T08:44:41.789Z,10.78
2018-12-25T08:47:07.890Z,11.43
2018-12-25T08:49:33.945Z,10.95
2018-12-25T08:51:59.964Z,10.25
2018-12-25T08:54:26.263Z,10.35
2018-12-25T08:56:53.444Z,9.45
2018-12-25T08:59:19.526Z,10.10
2018-12-25T09:01:45.560Z,10.15
2018-12-25T09:04:11.607Z,9.78
2018-12-25T09:06:37.792Z,10.80
2018-12-25T09:09:05.207Z,11.00
2018-12-25T09:11:32.578Z,10.43
2018-12-25T09:13:58.731Z,10.00
2018-12-25T09:16:24.808Z,10.15
2018-12-25T09:18:51.002Z,10.70
2018-12-25T09:21:18.191Z,10.55
2018-12-25T09:23:44.176Z,10.15
2018-12-25T09:26:10.192Z,10.23
2018-12-25T09:28:36.204Z,12.25
2018-12-25T09:31:02.524Z,10.15
2018-12-25T09:33:30.657Z,10.18
2018-12-25T09:35:56.738Z,10.30
2018-12-25T09:38:22.813Z,10.28
2018-12-25T09:40:48.944Z,11.40
2018-12-25T09:43:14.955Z,11.73
2018-12-25T09:45:41.192Z,10.23
2018-12-25T09:48:13.322Z,11.20
2018-12-25T09:50:36.271Z,11.30
2018-12-25T09:53:02.300Z,10.80
2018-12-25T09:55:30.859Z,11.95
2018-12-25T09:57:58.811Z,11.40
2018-12-25T10:00:28.433Z,9.90
2018-12-25T10:02:54.404Z,10.53
2018-12-25T10:05:20.463Z,10.00
2018-12-25T10:07:46.461Z,12.63
2018-12-25T10:10:12.493Z,10.47
2018-12-25T10:12:38.501Z,10.70
2018-12-25T10:15:05.625Z,11.78
2018-12-25T10:17:31.649Z,12.00
2018-12-25T10:19:57.660Z,11.68
2018-12-25T10:22:23.682Z,11.45
2018-12-25T10:24:51.338Z,11.35
2018-12-25T10:27:17.592Z,11.70
2018-12-25T10:29:43.616Z,11.30
2018-12-25T10:32:09.639Z,11.43
2018-12-25T10:34:35.700Z,12.45
2018-12-25T10:37:01.679Z,10.95
2018-12-25T10:39:27.712Z,11.97
2018-12-25T10:41:53.727Z,11.50
2018-12-25T10:44:20.031Z,12.68
2018-12-25T10:46:46.069Z,10.95
2018-12-25T10:49:12.131Z,12.55
2018-12-25T10:51:39.253Z,12.43
2018-12-25T10:54:05.234Z,11.40
2018-12-25T10:56:31.324Z,11.80
2018-12-25T10:58:57.331Z,12.93
2018-12-25T11:01:25.368Z,11.75
2018-12-25T11:03:51.462Z,11.95
2018-12-25T11:06:17.471Z,12.45
2018-12-25T11:08:43.499Z,11.12
2018-12-25T11:11:16.385Z,12.00
2018-12-25T11:13:42.366Z,11.88
2018-12-25T11:16:08.395Z,12.57
2018-12-25T11:18:34.457Z,11.80
2018-12-25T11:21:00.454Z,12.50
2018-12-25T11:23:26.508Z,11.68
2018-12-25T11:25:52.478Z,12.78
2018-12-25T11:28:18.539Z,13.00
2018-12-25T11:30:44.581Z,12.53
2018-12-25T11:33:12.521Z,12.35
2018-12-25T11:35:38.511Z,12.18
2018-12-25T11:38:04.610Z,11.97
2018-12-25T11:40:30.605Z,11.85
2018-12-25T11:42:56.631Z,11.83
2018-12-25T11:45:22.654Z,14.05
2018-12-25T11:47:49.052Z,12.85
2018-12-25T11:50:15.112Z,12.50
2018-12-25T11:52:42.267Z,11.68
2018-12-25T11:55:08.688Z,13.03
2018-12-25T11:57:34.729Z,12.73
2018-12-25T12:00:00.720Z,13.70
2018-12-25T12:02:26.722Z,11.30
2018-12-25T12:04:52.752Z,13.62
2018-12-25T12:07:20.882Z,12.28
2018-12-25T12:09:46.867Z,13.70
2018-12-25T12:12:15.018Z,12.40
2018-12-25T12:14:41.048Z,12.85
2018-12-25T12:17:07.123Z,12.55
2018-12-25T12:19:33.147Z,13.32
2018-12-25T12:21:59.204Z,12.65
2018-12-25T12:24:25.184Z,12.88
2018-12-25T12:26:51.193Z,12.63
2018-12-25T12:29:17.212Z,12.33
2018-12-25T12:31:43.255Z,12.63
2018-12-25T12:34:09.284Z,12.07
2018-12-25T12:36:35.330Z,12.60
2018-12-25T12:39:01.355Z,11.80
2018-12-25T12:41:27.377Z,12.10
2018-12-25T12:43:53.416Z,14.23
2018-12-25T12:46:19.455Z,12.65
2018-12-25T12:48:45.480Z,13.50
2018-12-25T12:51:11.569Z,13.05
2018-12-25T12:53:37.586Z,12.73
2018-12-25T12:56:03.712Z,12.43
2018-12-25T12:58:33.210Z,13.15
2018-12-25T13:01:00.550Z,12.78
2018-12-25T13:03:26.560Z,12.20
2018-12-25T13:05:52.531Z,12.65
2018-12-25T13:08:18.568Z,12.87
2018-12-25T13:10:45.611Z,12.10
2018-12-25T13:13:11.631Z,11.17
2018-12-25T13:15:37.658Z,12.90
2018-12-25T13:18:03.684Z,13.10
2018-12-25T13:20:29.738Z,12.60
2018-12-25T13:22:55.911Z,12.40
2018-12-25T13:25:23.860Z,12.50
2018-12-25T13:27:49.952Z,12.10
2018-12-25T13:30:16.023Z,13.05
2018-12-25T13:32:42.014Z,14.15
2018-12-25T13:35:09.316Z,14.98
2018-12-25T13:37:35.387Z,12.33
2018-12-25T13:40:01.498Z,13.20
2018-12-25T13:42:29.419Z,13.50
2018-12-25T13:44:55.395Z,14.80
2018-12-25T13:47:21.571Z,12.77
2018-12-25T13:49:47.666Z,13.23
2018-12-25T13:52:13.699Z,14.15
2018-12-25T13:54:39.849Z,13.30
2018-12-25T13:57:05.938Z,14.63
2018-12-25T13:59:33.835Z,14.60
2018-12-25T14:01:59.938Z,13.07
2018-12-25T14:04:26.163Z,13.90
2018-12-25T14:06:54.664Z,13.90
2018-12-25T14:09:20.701Z,12.70
2018-12-25T14:11:46.727Z,12.10
2018-12-25T14:14:12.913Z,12.97
2018-12-25T14:16:38.981Z,13.23
2018-12-25T14:19:05.003Z,13.70
2018-12-25T14:21:30.974Z,12.50
2018-12-25T14:23:57.097Z,12.70
2018-12-25T14:26:30.772Z,13.00
2018-12-25T14:28:57.006Z,12.80
2018-12-25T14:31:22.987Z,13.23
2018-12-25T14:33:48.988Z,13.33
2018-12-25T14:36:15.022Z,13.20
2018-12-25T14:38:41.012Z,14.17
2018-12-25T14:41:07.059Z,15.10
2018-12-25T14:43:33.121Z,13.53
2018-12-25T14:45:59.207Z,12.63
2018-12-25T14:48:25.243Z,11.90
2018-12-25T14:50:51.203Z,13.10
2018-12-25T14:53:19.832Z,13.50
2018-12-25T14:55:45.175Z,13.30
2018-12-25T14:58:11.166Z,12.63
2018-12-25T15:00:37.173Z,12.80
2018-12-25T15:03:03.187Z,12.13
2018-12-25T15:05:30.489Z,13.10
2018-12-25T15:07:56.488Z,11.97
2018-12-25T15:10:22.527Z,12.17
2018-12-25T15:12:48.554Z,12.73
2018-12-25T15:15:14.634Z,12.33
2018-12-25T15:17:40.982Z,13.70
2018-12-25T15:20:07.136Z,13.87
2018-12-25T15:22:33.139Z,11.43
2018-12-25T15:24:59.162Z,13.20
2018-12-25T15:27:25.173Z,13.10
2018-12-25T15:29:51.197Z,13.83
2018-12-25T15:32:17.187Z,14.57
2018-12-25T15:34:43.732Z,12.97
2018-12-25T15:37:09.722Z,13.30
2018-12-25T15:39:35.840Z,13.50
2018-12-25T15:42:01.957Z,12.20
2018-12-25T15:44:47.865Z,12.33
2018-12-25T15:47:13.909Z,14.53
2018-12-25T15:49:40.035Z,13.03
2018-12-25T15:52:06.176Z,13.10
2018-12-25T15:54:32.209Z,13.40
2018-12-25T15:56:58.388Z,13.32
2018-12-25T15:59:24.426Z,12.93
2018-12-25T16:01:51.837Z,11.30
2018-12-25T16:04:17.863Z,14.20
2018-12-25T16:06:46.326Z,13.50
2018-12-25T16:09:13.903Z,12.90
2018-12-25T16:11:41.080Z,13.68
2018-12-25T16:14:09.062Z,12.53
2018-12-25T16:16:35.108Z,13.35
2018-12-25T16:19:01.134Z,14.98
2018-12-25T16:21:27.292Z,14.50
2018-12-25T16:23:53.313Z,14.70
2018-12-25T16:26:19.359Z,14.07
2018-12-25T16:28:45.366Z,16.10
2018-12-25T16:31:11.558Z,15.75
2018-12-25T16:33:37.586Z,16.27
2018-12-25T16:36:03.606Z,16.15
2018-12-25T16:38:29.613Z,15.75
2018-12-25T16:40:55.676Z,14.73
2018-12-25T16:43:21.733Z,14.67
2018-12-25T16:45:47.793Z,14.83
2018-12-25T16:48:13.834Z,15.53
2018-12-25T16:50:40.298Z,16.23
2018-12-25T16:53:06.436Z,16.03
2018-12-25T16:55:32.460Z,15.63
2018-12-25T16:57:58.472Z,18.40
2018-12-25T17:00:24.484Z,16.40
2018-12-25T17:02:50.575Z,15.35
2018-12-25T17:05:16.653Z,16.03
2018-12-25T17:08:02.673Z,16.67
2018-12-25T17:10:28.656Z,16.62
2018-12-25T17:12:56.255Z,16.20
2018-12-25T17:15:23.254Z,15.57
2018-12-25T17:17:49.267Z,16.48
2018-12-25T17:20:17.568Z,16.70
2018-12-25T17:22:43.608Z,16.50
2018-12-25T17:25:09.669Z,15.18
2018-12-25T17:27:35.943Z,16.03
2018-12-25T17:30:02.056Z,16.43
2018-12-25T17:32:28.162Z,17.37
2018-12-25T17:34:54.331Z,16.47
2018-12-25T17:37:20.463Z,16.87
2018-12-25T17:39:46.478Z,16.40
2018-12-25T17:42:12.471Z,16.00
2018-12-25T17:44:38.539Z,18.13
2018-12-25T17:47:04.577Z,16.40
2018-12-25T17:49:31.692Z,17.00
2018-12-25T17:51:57.816Z,17.53
2018-12-25T17:54:23.804Z,17.10
2018-12-25T17:56:51.281Z,17.47
2018-12-25T17:59:17.412Z,16.20
2018-12-25T18:01:43.853Z,16.30
2018-12-25T18:04:09.813Z,16.90
2018-12-25T18:06:35.829Z,17.27
2018-12-25T18:09:04.098Z,16.93
2018-12-25T18:11:31.331Z,17.00
2018-12-25T18:13:58.671Z,16.00
2018-12-25T18:16:24.939Z,17.80
2018-12-25T18:18:50.955Z,17.20
2018-12-25T18:21:16.955Z,16.33
2018-12-25T18:23:44.077Z,17.10
2018-12-25T18:26:10.113Z,17.10
2018-12-25T18:28:36.084Z,15.30
2018-12-25T18:31:02.086Z,16.33
2018-12-25T18:33:28.088Z,15.73
2018-12-25T18:35:54.133Z,17.27
2018-12-25T18:38:20.206Z,16.17
2018-12-25T18:40:46.214Z,17.00
2018-12-25T18:43:12.238Z,16.70
2018-12-25T18:45:38.231Z,16.10
2018-12-25T18:48:04.532Z,16.43
2018-12-25T18:50:33.665Z,20.80
2018-12-25T18:52:59.892Z,15.90
2018-12-25T18:55:25.870Z,15.13
2018-12-25T18:57:52.967Z,18.07
2018-12-25T19:00:19.318Z,14.33
2018-12-25T19:02:45.967Z,13.77
2018-12-25T19:05:12.363Z,14.97
2018-12-25T19:07:38.492Z,14.60
2018-12-25T19:10:07.672Z,15.27
2018-12-25T19:12:33.941Z,13.60
2018-12-25T19:15:02.711Z,15.90
2018-12-25T19:17:28.861Z,15.77
2018-12-25T19:19:55.943Z,14.43
2018-12-25T19:22:23.359Z,17.00
2018-12-25T19:24:49.447Z,15.10
2018-12-25T19:27:15.938Z,14.87
2018-12-25T19:29:42.088Z,15.57
2018-12-25T19:32:08.136Z,14.20
2018-12-25T19:34:34.211Z,16.10
2018-12-25T19:37:00.260Z,15.88
2018-12-25T19:39:26.330Z,15.10
2018-12-25T19:41:52.367Z,14.33
2018-12-25T19:44:21.491Z,15.50
2018-12-25T19:46:47.634Z,14.57
2018-12-25T19:49:13.655Z,14.70
2018-12-25T19:51:39.885Z,15.97
2018-12-25T19:54:06.041Z,14.37
2018-12-25T19:56:32.130Z,14.97
2018-12-25T19:58:58.212Z,13.83
2018-12-25T20:01:24.637Z,14.43
2018-12-25T20:03:50.807Z,14.18
2018-12-25T20:06:41.491Z,13.53
2018-12-25T20:09:33.747Z,15.23
2018-12-25T20:12:06.417Z,13.88
2018-12-25T20:14:53.984Z,15.30
2018-12-25T20:17:44.790Z,14.93
2018-12-25T20:20:36.208Z,14.60
2018-12-25T20:23:09.786Z,14.80
2018-12-25T20:25:45.197Z,15.33
2018-12-25T20:28:27.392Z,15.10
2018-12-25T20:31:00.279Z,15.07
2018-12-25T20:33:33.141Z,15.90
2018-12-25T20:36:35.230Z,14.43
2018-12-25T20:39:29.062Z,14.07
2018-12-25T20:42:27.508Z,15.35
2018-12-25T20:45:03.512Z,13.73
2018-12-25T20:47:42.624Z,15.60
2018-12-25T20:50:32.485Z,15.55
2018-12-25T20:53:21.624Z,16.30
2018-12-25T20:55:58.741Z,16.32
2018-12-25T20:58:52.908Z,16.07
2018-12-25T21:01:25.717Z,15.95
2018-12-25T21:04:12.659Z,15.45
2018-12-25T21:06:47.791Z,14.23
2018-12-25T21:09:40.736Z,14.53
2018-12-25T21:12:28.789Z,14.98
2018-12-25T21:15:16.967Z,14.50
2018-12-25T21:17:49.703Z,15.45
2018-12-25T21:20:31.433Z,14.65
2018-12-25T21:23:34.872Z,15.43
2018-12-25T21:26:38.776Z,15.08
2018-12-25T21:29:04.767Z,15.60
2018-12-25T21:31:30.937Z,15.50
2018-12-25T21:33:58.937Z,15.55
2018-12-25T21:36:25.432Z,14.60
2018-12-25T21:38:51.553Z,15.90
2018-12-25T21:41:19.650Z,15.45
2018-12-25T21:43:45.814Z,16.70
2018-12-25T21:46:12.033Z,16.15
2018-12-25T21:48:39.679Z,17.15
2018-12-25T21:51:05.865Z,15.40
2018-12-25T21:53:32.974Z,15.93
2018-12-25T21:56:02.816Z,16.20
2018-12-25T21:58:29.101Z,15.95
2018-12-25T22:00:55.643Z,15.43
2018-12-25T22:03:22.166Z,16.10
2018-12-25T22:05:48.248Z,16.05
2018-12-25T22:08:14.302Z,15.60
2018-12-25T22:10:40.339Z,15.15
2018-12-25T22:13:07.772Z,16.47
2018-12-25T22:15:34.041Z,16.12
2018-12-25T22:18:00.204Z,15.98
2018-12-25T22:20:26.331Z,17.02
2018-12-25T22:23:12.219Z,16.60
2018-12-25T22:25:38.283Z,17.42
2018-12-25T22:28:04.520Z,17.15
2018-12-25T22:30:30.527Z,15.00
2018-12-25T22:32:56.567Z,17.07
2018-12-25T22:35:22.594Z,17.73
2018-12-25T22:37:48.603Z,18.90
2018-12-25T22:40:14.629Z,16.62
2018-12-25T22:42:40.715Z,17.45
2018-12-25T22:45:06.970Z,16.90
2018-12-25T22:47:33.080Z,16.17
2018-12-25T22:49:59.075Z,17.67
2018-12-25T22:52:25.411Z,16.83
2018-12-25T22:54:51.439Z,16.52
2018-12-25T22:57:17.529Z,16.07
2018-12-25T22:59:43.595Z,17.50
2018-12-25T23:02:09.573Z,17.35
2018-12-25T23:04:35.583Z,17.00
2018-12-25T23:07:01.652Z,17.32
2018-12-25T23:09:27.730Z,17.50
2018-12-25T23:11:53.794Z,17.65
2018-12-25T23:14:19.779Z,17.45
2018-12-25T23:16:45.806Z,17.23
2018-12-25T23:19:11.846Z,17.15
2018-12-25T23:21:37.880Z,18.70
2018-12-25T23:24:03.946Z,18.50
2018-12-25T23:26:30.241Z,18.48
2018-12-25T23:28:56.315Z,17.60
2018-12-25T23:31:22.625Z,18.10
2018-12-25T23:33:48.594Z,17.73
2018-12-25T23:36:14.621Z,20.07
2018-12-25T23:38:40.624Z,17.37
2018-12-25T23:41:06.639Z,16.80
2018-12-25T23:43:32.654Z,19.37
2018-12-25T23:45:58.648Z,18.02
2018-12-25T23:48:24.729Z,18.10
2018-12-25T23:50:50.731Z,18.48
2018-12-25T23:53:16.976Z,17.90
2018-12-25T23:55:42.974Z,22.02
2018-12-25T23:58:08.998Z,17.97
